Time;durP1;ratioP1;P1;durP2;ratioP2;P2;SDS_P1;SDS_P2;PMS_P1;PMS_P2;Temp;Humidity;BMP_temperature;BMP_pressure;BME280_temperature;BME280_humidity;BME280_pressure;Samples;Min_cycle;Max_cycle;Signal;HPM_P1;HPM_P2
2021/03/04 00:00:59;;;;;;;26.85;15.70;;;;;;;5.36;58.91;96991.05;1765531;80;21228;-82
2021/03/04 00:03:25;;;;;;;22.45;14.23;;;;;;;5.30;59.10;96989.02;1850244;77;21372;-82
2021/03/04 00:05:51;;;;;;;21.82;14.58;;;;;;;5.22;59.47;96987.59;1765359;80;21117;-82
2021/03/04 00:08:19;;;;;;;29.48;17.37;;;;;;;5.15;59.61;96986.95;1850374;77;21252;-82
2021/03/04 00:10:45;;;;;;;23.98;14.78;;;;;;;5.07;59.42;96979.91;1850465;77;21082;-81
2021/03/04 00:13:11;;;;;;;27.82;18.30;;;;;;;5.02;59.93;96985.91;1850358;77;21114;-82
2021/03/04 00:15:40;;;;;;;26.73;16.30;;;;;;;4.90;60.59;96972.83;1765375;80;21106;-82
2021/03/04 00:18:06;;;;;;;28.23;17.73;;;;;;;4.90;60.59;96972.83;1850555;77;21441;-81
2021/03/04 00:20:32;;;;;;;26.10;16.50;;;;;;;4.90;60.25;96973.64;1771326;81;21236;-81
2021/03/04 00:22:59;;;;;;;24.77;16.97;;;;;;;4.92;60.51;96970.45;1850218;77;21484;-82
2021/03/04 00:25:27;;;;;;;25.25;16.60;;;;;;;4.96;60.43;96964.08;1765358;80;21126;-82
2021/03/04 00:27:53;;;;;;;25.90;15.32;;;;;;;5.00;60.60;96959.47;1850484;77;21117;-82
2021/03/04 00:30:20;;;;;;;23.10;14.68;;;;;;;5.02;60.87;96956.29;1850170;77;21101;-82
2021/03/04 00:32:46;;;;;;;23.57;14.63;;;;;;;5.03;60.91;96946.33;1850236;77;21241;-82
2021/03/04 00:35:12;;;;;;;22.70;15.15;;;;;;;5.00;60.96;96949.98;1765372;80;21129;-82
2021/03/04 00:37:39;;;;;;;21.90;14.30;;;;;;;4.99;61.10;96947.55;1850199;77;21110;-82
2021/03/04 00:40:07;;;;;;;24.63;14.78;;;;;;;4.95;61.29;96951.34;1850243;77;21070;-82
2021/03/04 00:42:34;;;;;;;22.17;14.20;;;;;;;4.96;61.28;96945.24;1849932;77;21443;-81
2021/03/04 00:45:03;;;;;;;23.47;15.00;;;;;;;4.94;61.57;96935.55;1848348;77;21119;-81
2021/03/04 00:47:29;;;;;;;23.87;15.48;;;;;;;4.92;61.43;96932.30;1848479;77;21130;-81
2021/03/04 00:49:55;;;;;;;23.87;15.05;;;;;;;4.94;61.56;96928.64;1848324;77;21336;-81
2021/03/04 00:52:21;;;;;;;24.02;15.45;;;;;;;4.92;61.63;96925.39;1848330;77;21110;-81
2021/03/04 00:54:47;;;;;;;24.43;15.20;;;;;;;4.91;61.97;96931.95;1848393;77;21333;-81
2021/03/04 00:57:13;;;;;;;24.43;14.55;;;;;;;4.85;61.90;96924.27;1847965;78;21145;-81
2021/03/04 00:59:39;;;;;;;21.77;13.83;;;;;;;4.81;61.76;96924.20;1848299;77;21367;-81
2021/03/04 01:02:05;;;;;;;19.57;13.03;;;;;;;4.79;62.20;96920.48;1848437;77;21129;-82
2021/03/04 01:04:31;;;;;;;22.58;14.30;;;;;;;4.74;62.39;96921.36;1848205;77;21122;-81
2021/03/04 01:06:57;;;;;;;20.90;12.95;;;;;;;4.69;62.51;96911.91;1848235;77;21256;-81
2021/03/04 01:09:23;;;;;;;20.88;13.83;;;;;;;4.67;62.84;96900.94;1848414;77;21086;-81
2021/03/04 01:11:49;;;;;;;18.32;12.15;;;;;;;4.67;62.79;96901.41;1825004;78;21457;-81
2021/03/04 01:14:15;;;;;;;22.67;14.30;;;;;;;4.64;62.89;96895.24;1848244;77;21165;-81
2021/03/04 01:16:41;;;;;;;22.55;14.10;;;;;;;4.62;62.88;96893.28;1848810;77;21253;-81
2021/03/04 01:19:06;;;;;;;22.62;13.13;;;;;;;4.59;63.14;96886.64;1848373;77;21130;-81
2021/03/04 01:21:32;;;;;;;22.45;13.93;;;;;;;4.57;63.24;96880.00;1848369;77;21228;-81
2021/03/04 01:24:00;;;;;;;20.72;12.93;;;;;;;4.53;62.94;96876.85;1848371;77;21364;-81
2021/03/04 01:26:26;;;;;;;19.00;12.80;;;;;;;4.54;63.16;96875.91;1848262;77;21137;-81
2021/03/04 01:28:52;;;;;;;19.90;12.98;;;;;;;4.52;63.39;96873.94;1848535;77;21138;-81
2021/03/04 01:31:19;;;;;;;20.15;12.93;;;;;;;4.50;63.52;96872.78;1825427;78;21110;-82
2021/03/04 01:33:45;;;;;;;18.98;12.25;;;;;;;4.47;63.39;96864.52;1848431;77;21392;-81
2021/03/04 01:36:11;;;;;;;21.85;13.75;;;;;;;4.43;63.54;96864.45;1848086;77;21121;-81
2021/03/04 01:38:36;;;;;;;19.23;12.05;;;;;;;4.42;63.64;96862.83;1848473;77;21134;-81
2021/03/04 01:41:02;;;;;;;22.73;14.58;;;;;;;4.39;63.60;96854.91;1848670;77;21098;-81
2021/03/04 01:43:28;;;;;;;21.17;12.80;;;;;;;4.41;63.24;96851.72;1848347;77;21560;-81
2021/03/04 01:45:54;;;;;;;18.95;13.13;;;;;;;4.42;63.13;96844.34;1848439;77;21103;-81
2021/03/04 01:48:21;;;;;;;16.25;9.98;;;;;;;4.53;63.83;96847.26;1848348;77;21114;-81
2021/03/04 01:50:47;;;;;;;17.60;11.38;;;;;;;4.53;62.95;96840.34;1848328;78;21152;-80
2021/03/04 01:53:13;;;;;;;20.37;12.88;;;;;;;4.65;63.16;96838.48;1848098;78;21114;-80
2021/03/04 01:55:39;;;;;;;19.27;12.43;;;;;;;4.74;62.84;96825.30;1847833;77;21102;-80
2021/03/04 01:58:05;;;;;;;19.10;11.97;;;;;;;4.81;62.51;96828.47;1847937;77;21287;-80
2021/03/04 02:00:31;;;;;;;19.80;12.43;;;;;;;4.96;62.11;96817.77;1848166;77;21483;-80
2021/03/04 02:02:57;;;;;;;19.70;12.05;;;;;;;5.05;61.72;96823.41;1848199;77;21114;-80
2021/03/04 02:05:23;;;;;;;16.87;9.78;;;;;;;5.11;61.87;96810.78;1848214;77;21325;-80
2021/03/04 02:08:19;;;;;;;18.80;11.93;;;;;;;5.13;61.60;96811.92;1848328;77;21132;-80
2021/03/04 02:10:56;;;;;;;17.95;11.25;;;;;;;5.15;61.80;96813.08;1848314;78;21098;-80
2021/03/04 02:13:45;;;;;;;16.90;10.80;;;;;;;5.15;61.22;96808.73;1847993;77;21083;-80
2021/03/04 02:16:25;;;;;;;17.52;10.32;;;;;;;5.13;60.94;96807.59;1848364;77;21229;-80
2021/03/04 02:18:59;;;;;;;16.85;10.05;;;;;;;5.18;61.05;96801.20;1847610;77;21379;-81
2021/03/04 02:21:31;;;;;;;17.95;9.95;;;;;;;5.23;59.89;96801.14;1849250;77;21213;-80
2021/03/04 02:24:38;;;;;;;18.05;11.40;;;;;;;5.28;61.04;96791.70;1849498;77;21436;-80
2021/03/04 02:27:11;;;;;;;16.65;10.45;;;;;;;5.26;60.62;96793.61;1833008;78;21357;-80
2021/03/04 02:29:46;;;;;;;15.63;10.78;;;;;;;5.18;61.03;96798.15;1849209;77;21288;-80
2021/03/04 02:32:13;;;;;;;13.22;8.68;;;;;;;5.08;60.89;96793.50;1849188;77;21110;-80
2021/03/04 02:34:47;;;;;;;14.65;10.13;;;;;;;5.02;60.34;96787.59;1826023;78;21420;-80
2021/03/04 02:37:16;;;;;;;16.25;9.28;;;;;;;4.99;60.89;96782.72;1849317;77;21421;-80
2021/03/04 02:39:44;;;;;;;17.77;9.85;;;;;;;4.97;61.31;96782.05;1849191;77;21078;-80
2021/03/04 02:42:11;;;;;;;14.87;9.75;;;;;;;4.92;61.32;96774.74;1849375;77;21289;-80
2021/03/04 02:44:37;;;;;;;16.02;10.78;;;;;;;4.90;59.98;96772.78;1849236;77;21236;-80
2021/03/04 02:47:03;;;;;;;17.92;10.53;;;;;;;4.96;60.49;96765.78;1849214;77;21237;-80
2021/03/04 02:49:29;;;;;;;15.18;9.35;;;;;;;5.01;60.29;96762.31;1853778;77;21221;-80
2021/03/04 02:51:55;;;;;;;16.65;9.28;;;;;;;5.03;60.20;96768.61;1849190;77;21455;-80
2021/03/04 02:54:21;;;;;;;14.23;9.25;;;;;;;5.00;60.35;96763.27;1849162;77;21086;-80
2021/03/04 02:56:47;;;;;;;14.83;8.78;;;;;;;4.99;60.29;96759.07;1849163;77;21079;-80
2021/03/04 02:59:13;;;;;;;15.40;9.08;;;;;;;4.97;59.82;96754.53;1853703;77;21113;-80
2021/03/04 03:01:39;;;;;;;13.18;8.88;;;;;;;5.04;59.71;96745.77;1849163;77;21078;-80
2021/03/04 03:04:05;;;;;;;12.75;7.62;;;;;;;5.05;59.84;96748.23;1849105;77;21126;-80
2021/03/04 03:06:32;;;;;;;12.50;7.92;;;;;;;5.04;59.64;96740.62;1849124;77;21123;-80
2021/03/04 03:08:58;;;;;;;10.75;7.62;;;;;;;5.01;59.71;96737.84;1848972;77;21098;-80
2021/03/04 03:11:24;;;;;;;9.45;6.22;;;;;;;5.02;59.11;96742.05;1849168;77;21105;-80
2021/03/04 03:13:50;;;;;;;12.43;7.70;;;;;;;5.07;58.53;96742.47;1849278;78;21098;-80
2021/03/04 03:16:16;;;;;;;12.73;7.22;;;;;;;5.10;59.12;96734.45;1849146;77;21121;-80
2021/03/04 03:18:42;;;;;;;12.43;7.97;;;;;;;5.18;58.65;96736.80;1848835;77;21133;-81
2021/03/04 03:21:09;;;;;;;14.50;7.80;;;;;;;5.22;58.68;96736.41;1848481;77;21361;-81
2021/03/04 03:23:34;;;;;;;10.55;7.08;;;;;;;5.23;58.93;96734.16;1848398;77;21650;-81
2021/03/04 03:26:01;;;;;;;12.93;8.03;;;;;;;5.24;58.28;96724.19;1848764;77;21074;-81
2021/03/04 03:28:27;;;;;;;13.55;6.80;;;;;;;5.24;58.10;96728.05;1848570;77;21252;-81
2021/03/04 03:30:54;;;;;;;12.03;6.67;;;;;;;5.23;57.90;96728.20;1848526;77;21384;-81
2021/03/04 03:33:21;;;;;;;11.30;6.20;;;;;;;5.25;57.88;96724.52;1848442;77;21106;-81
2021/03/04 03:35:47;;;;;;;12.90;7.10;;;;;;;5.32;56.40;96726.86;1848255;77;21133;-81
2021/03/04 03:38:13;;;;;;;11.88;7.47;;;;;;;5.47;57.31;96723.83;1848062;77;21240;-81
2021/03/04 03:40:40;;;;;;;11.65;6.58;;;;;;;5.47;57.94;96716.91;1852913;77;21240;-82
2021/03/04 03:43:09;;;;;;;9.78;5.75;;;;;;;5.45;57.49;96718.02;1848552;77;21129;-81
2021/03/04 03:45:45;;;;;;;11.08;7.20;;;;;;;5.45;57.39;96716.72;1827045;77;21121;-81
2021/03/04 03:48:16;;;;;;;10.90;6.97;;;;;;;5.43;57.24;96722.02;1860473;77;21102;-81
2021/03/04 03:50:43;;;;;;;13.28;6.70;;;;;;;5.45;57.46;96714.14;1860206;77;21078;-81
2021/03/04 03:53:13;;;;;;;14.47;7.67;;;;;;;5.43;58.15;96711.23;1860126;77;21113;-81
2021/03/04 03:55:40;;;;;;;11.65;7.20;;;;;;;5.41;57.80;96706.70;1790023;80;21132;-81
2021/03/04 03:58:07;;;;;;;11.60;6.95;;;;;;;5.45;58.28;96704.65;1793764;80;21251;-81
2021/03/04 04:00:33;;;;;;;12.05;7.58;;;;;;;5.49;57.62;96704.69;1790469;80;21092;-81
2021/03/04 04:03:03;;;;;;;13.53;7.67;;;;;;;5.55;58.47;96695.13;1822941;79;21150;-81
2021/03/04 04:05:29;;;;;;;10.50;6.95;;;;;;;5.59;58.42;96701.61;1790455;80;21100;-81
2021/03/04 04:07:57;;;;;;;15.80;8.13;;;;;;;5.61;57.84;96697.59;1794251;80;21094;-81
2021/03/04 04:10:29;;;;;;;18.12;9.68;;;;;;;5.60;58.37;96694.20;1791146;80;21319;-81
2021/03/04 04:12:56;;;;;;;14.33;8.10;;;;;;;5.65;57.47;96695.06;1794941;80;21433;-82
2021/03/04 04:15:22;;;;;;;14.50;8.98;;;;;;;5.73;58.44;96692.59;1791088;80;21133;-82
2021/03/04 04:17:48;;;;;;;16.15;8.98;;;;;;;5.75;58.27;96697.12;1794743;80;21114;-82
2021/03/04 04:20:16;;;;;;;16.48;8.83;;;;;;;5.81;58.92;96692.66;1791192;80;21235;-81
2021/03/04 04:22:42;;;;;;;14.73;8.00;;;;;;;5.82;59.14;96685.27;1794702;80;21142;-81
2021/03/04 04:25:10;;;;;;;13.00;7.60;;;;;;;5.81;58.30;96684.93;1791154;80;21237;-81
2021/03/04 04:27:36;;;;;;;13.93;7.87;;;;;;;5.86;58.78;96693.55;1823376;79;21278;-81
2021/03/04 04:30:04;;;;;;;14.45;9.45;;;;;;;5.95;57.49;96681.89;1791056;80;21119;-81
2021/03/04 04:32:30;;;;;;;14.83;8.05;;;;;;;6.08;57.89;96683.31;1794815;80;21232;-81
2021/03/04 04:34:56;;;;;;;15.93;8.08;;;;;;;6.19;57.55;96672.80;1791180;80;21100;-81
2021/03/04 04:37:22;;;;;;;17.82;8.75;;;;;;;6.25;57.77;96660.09;1794679;80;21121;-82
2021/03/04 04:39:48;;;;;;;17.12;8.53;;;;;;;6.27;57.74;96653.50;1791097;80;21108;-81
2021/03/04 04:42:14;;;;;;;17.15;8.93;;;;;;;6.28;57.47;96646.08;1794730;80;21301;-81
2021/03/04 04:44:40;;;;;;;17.10;9.30;;;;;;;6.38;56.77;96646.02;1791193;80;21144;-81
2021/03/04 04:47:06;;;;;;;17.25;9.75;;;;;;;6.49;57.06;96642.70;1806225;79;21403;-82
2021/03/04 04:49:32;;;;;;;16.90;10.20;;;;;;;6.52;57.22;96637.27;1791720;80;21243;-81
2021/03/04 04:51:58;;;;;;;18.95;10.50;;;;;;;6.49;57.71;96636.25;1806253;79;21118;-82
2021/03/04 04:54:24;;;;;;;22.50;10.65;;;;;;;6.48;57.14;96635.92;1823756;78;21129;-82
2021/03/04 04:56:50;;;;;;;16.87;9.63;;;;;;;6.54;56.37;96631.46;1823904;78;21301;-81
2021/03/04 04:59:16;;;;;;;17.05;9.15;;;;;;;6.63;57.17;96620.70;1791636;79;21147;-81
2021/03/04 05:01:42;;;;;;;14.38;9.28;;;;;;;6.60;57.04;96615.36;1806309;79;21216;-81
2021/03/04 05:04:08;;;;;;;15.75;10.15;;;;;;;6.56;57.05;96614.05;1791810;80;21129;-82
2021/03/04 05:06:34;;;;;;;14.45;9.10;;;;;;;6.52;57.17;96613.22;1806134;79;21100;-81
2021/03/04 05:09:00;;;;;;;14.50;8.15;;;;;;;6.49;56.64;96613.02;1791622;80;21319;-82
2021/03/04 05:11:26;;;;;;;16.40;9.38;;;;;;;6.50;57.32;96611.23;1776712;79;21113;-81
2021/03/04 05:13:52;;;;;;;11.68;7.08;;;;;;;6.42;57.73;96607.33;1791643;80;21116;-81
2021/03/04 05:16:18;;;;;;;11.53;6.97;;;;;;;6.41;56.62;96613.45;1805706;79;21097;-81
2021/03/04 05:18:44;;;;;;;11.70;7.87;;;;;;;6.40;56.29;96610.06;1790937;80;21120;-81
2021/03/04 05:21:10;;;;;;;13.68;8.38;;;;;;;6.43;55.08;96605.88;1805546;79;21141;-81
2021/03/04 05:23:36;;;;;;;13.65;8.03;;;;;;;6.57;54.90;96598.89;1791014;80;21144;-81
2021/03/04 05:26:02;;;;;;;13.32;8.03;;;;;;;6.63;54.75;96604.72;1805489;79;21144;-81
2021/03/04 05:28:28;;;;;;;12.95;7.80;;;;;;;6.64;55.27;96605.53;1790941;80;21148;-81
2021/03/04 05:30:55;;;;;;;19.30;11.95;;;;;;;6.59;55.02;96615.03;1805681;79;21278;-81
2021/03/04 05:33:21;;;;;;;17.12;10.90;;;;;;;6.54;55.37;96605.65;1805584;79;21477;-81
2021/03/04 05:35:47;;;;;;;21.52;11.85;;;;;;;6.45;55.89;96610.41;1805573;79;21287;-81
2021/03/04 05:38:13;;;;;;;22.95;13.15;;;;;;;6.37;55.85;96619.88;1823049;79;21149;-81
2021/03/04 05:40:39;;;;;;;27.93;18.00;;;;;;;6.23;56.05;96619.92;1823196;78;21463;-81
2021/03/04 05:43:05;;;;;;;31.12;19.05;;;;;;;6.11;56.45;96612.07;1823185;79;21158;-81
2021/03/04 05:45:31;;;;;;;34.05;19.95;;;;;;;5.96;56.79;96617.74;1813392;78;21349;-81
2021/03/04 05:47:58;;;;;;;26.90;17.00;;;;;;;5.83;57.09;96617.25;1808256;79;21090;-81
2021/03/04 05:50:26;;;;;;;27.65;17.15;;;;;;;5.73;57.49;96616.05;1785718;79;21130;-81
2021/03/04 05:53:05;;;;;;;27.67;15.05;;;;;;;5.62;58.12;96616.25;1808366;79;21437;-81
2021/03/04 05:55:31;;;;;;;19.20;11.55;;;;;;;5.50;57.99;96616.11;1809086;79;21373;-81
2021/03/04 05:57:57;;;;;;;21.07;12.13;;;;;;;5.47;57.54;96611.24;1809066;79;21103;-81
2021/03/04 06:00:23;;;;;;;26.80;14.18;;;;;;;5.53;57.48;96612.42;1808964;79;21217;-81
2021/03/04 06:02:50;;;;;;;21.65;13.13;;;;;;;5.55;57.73;96609.25;1808944;79;21143;-81
2021/03/04 06:05:16;;;;;;;23.35;13.35;;;;;;;5.55;57.93;96606.67;1809162;79;21093;-81
2021/03/04 06:07:43;;;;;;;24.87;14.20;;;;;;;5.56;57.69;96612.16;1809303;79;21242;-81
2021/03/04 06:10:11;;;;;;;28.25;15.88;;;;;;;5.57;57.74;96608.14;1809294;79;21103;-81
2021/03/04 06:12:37;;;;;;;25.05;16.02;;;;;;;5.57;58.15;96600.41;1809242;79;21409;-81
2021/03/04 06:15:08;;;;;;;33.05;17.48;;;;;;;5.57;58.37;96612.48;1809174;79;21326;-81
2021/03/04 06:17:34;;;;;;;25.75;16.87;;;;;;;5.56;58.43;96616.03;1809453;79;21507;-81
2021/03/04 06:20:06;;;;;;;30.43;19.42;;;;;;;5.56;58.44;96618.60;1809153;79;21298;-81
2021/03/04 06:22:34;;;;;;;30.70;18.15;;;;;;;5.57;58.56;96621.52;1809501;79;21110;-81
2021/03/04 06:25:04;;;;;;;40.23;21.75;;;;;;;5.58;58.94;96621.84;1809183;79;21451;-81
2021/03/04 06:27:33;;;;;;;41.13;24.05;;;;;;;5.55;59.16;96622.95;1807891;79;21144;-82
2021/03/04 06:30:07;;;;;;;46.45;23.95;;;;;;;5.55;59.53;96630.68;1809253;79;21107;-81
2021/03/04 06:32:33;;;;;;;37.30;22.55;;;;;;;5.58;59.19;96634.73;1809313;79;21237;-81
2021/03/04 06:35:12;;;;;;;38.23;21.48;;;;;;;5.63;58.96;96635.91;1809233;79;21444;-81
2021/03/04 06:37:44;;;;;;;39.70;22.15;;;;;;;5.66;59.00;96645.12;1809264;79;21106;-81
2021/03/04 06:40:32;;;;;;;34.88;20.32;;;;;;;5.69;59.10;96644.38;1809301;79;21102;-82
2021/03/04 06:42:58;;;;;;;35.35;22.10;;;;;;;5.74;59.23;96655.53;1786878;79;21150;-81
2021/03/04 06:45:35;;;;;;;37.73;22.20;;;;;;;5.78;59.32;96644.45;1813422;79;21122;-82
2021/03/04 06:48:14;;;;;;;35.92;21.52;;;;;;;5.81;59.60;96648.83;1818078;78;21094;-81
2021/03/04 06:50:52;;;;;;;37.58;22.87;;;;;;;5.84;59.83;96642.09;1817422;79;21259;-81
2021/03/04 06:53:22;;;;;;;36.83;22.15;;;;;;;5.87;59.84;96639.72;1817207;79;21277;-82
2021/03/04 06:55:51;;;;;;;44.40;22.93;;;;;;;5.91;59.96;96637.20;1818114;78;21216;-81
2021/03/04 06:58:36;;;;;;;39.10;23.38;;;;;;;5.95;60.04;96638.53;1858044;77;21105;-82
2021/03/04 07:01:16;;;;;;;38.13;21.85;;;;;;;6.06;60.09;96638.80;1824757;77;22888;-81
2021/03/04 07:03:50;;;;;;;40.83;23.77;;;;;;;6.06;60.16;96634.93;1828510;78;21152;-81
2021/03/04 07:44:01;;;;;;;26.55;15.43;;;;;;;7.21;59.43;96618.78;1781113;79;22488;-81
2021/03/04 07:46:38;;;;;;;24.07;15.45;;;;;;;7.25;59.43;96617.98;1754229;82;21368;-81
2021/03/04 07:49:06;;;;;;;26.42;17.60;;;;;;;7.33;59.40;96615.45;1754545;81;21511;-81
2021/03/04 07:51:44;;;;;;;26.42;16.45;;;;;;;7.40;59.80;96606.90;1754954;81;21325;-82
2021/03/04 07:54:10;;;;;;;29.67;18.73;;;;;;;7.47;59.20;96602.70;1754968;82;21154;-82
2021/03/04 07:56:37;;;;;;;30.75;17.57;;;;;;;7.56;59.52;96601.45;1755049;82;21311;-82
2021/03/04 07:59:14;;;;;;;28.70;17.40;;;;;;;7.63;59.24;96595.97;1755009;82;21126;-82
2021/03/04 08:01:44;;;;;;;26.12;18.92;;;;;;;7.68;59.04;96589.38;1755058;81;21417;-82
2021/03/04 08:04:23;;;;;;;27.87;17.82;;;;;;;7.76;59.05;96585.98;1747342;82;21123;-82
2021/03/04 08:06:50;;;;;;;34.23;21.17;;;;;;;7.84;58.89;96586.01;1755008;82;21248;-82
2021/03/04 08:09:33;;;;;;;31.07;20.25;;;;;;;7.92;58.98;96584.71;1755121;81;21091;-81
2021/03/04 08:12:09;;;;;;;29.00;20.32;;;;;;;8.00;58.95;96581.34;1755288;81;21102;-82
2021/03/04 08:14:36;;;;;;;32.15;20.10;;;;;;;8.06;58.59;96578.91;1755053;82;21402;-82
2021/03/04 08:17:05;;;;;;;32.17;21.05;;;;;;;8.13;58.48;96588.12;1755019;82;21448;-82
2021/03/04 08:19:32;;;;;;;33.73;21.30;;;;;;;8.18;59.04;96580.70;1755025;81;21078;-81
2021/03/04 08:22:07;;;;;;;38.70;23.65;;;;;;;8.23;59.05;96586.19;1755177;82;21166;-81
2021/03/04 08:24:38;;;;;;;36.88;21.60;;;;;;;8.27;58.90;96584.08;1723067;82;21233;-81
2021/03/04 08:27:06;;;;;;;35.48;22.80;;;;;;;8.31;58.81;96581.52;1754958;82;21126;-81
2021/03/04 08:29:32;;;;;;;36.42;24.80;;;;;;;8.34;58.81;96581.21;1754869;82;21138;-81
2021/03/04 08:32:01;;;;;;;40.12;26.02;;;;;;;8.37;59.08;96588.16;1725636;82;21115;-81
2021/03/04 08:34:37;;;;;;;42.85;27.07;;;;;;;8.47;59.38;96579.43;1724038;82;21102;-81
2021/03/04 08:37:04;;;;;;;43.90;28.35;;;;;;;8.56;59.29;96582.31;1755047;81;21142;-80
2021/03/04 08:39:31;;;;;;;46.02;29.75;;;;;;;8.64;59.49;96583.12;1754996;82;21111;-80
2021/03/04 08:42:07;;;;;;;47.78;30.05;;;;;;;8.73;59.56;96578.72;1753941;82;21353;-81
2021/03/04 08:44:33;;;;;;;43.35;28.70;;;;;;;8.80;59.39;96575.81;1741664;81;21099;-81
2021/03/04 08:47:00;;;;;;;42.95;28.98;;;;;;;8.84;59.25;96574.98;1741467;82;21138;-81
2021/03/04 08:49:26;;;;;;;43.13;29.27;;;;;;;8.86;59.42;96576.44;1741009;82;21138;-81
2021/03/04 08:51:53;;;;;;;46.98;30.08;;;;;;;8.91;59.42;96576.73;1740942;82;21111;-81
2021/03/04 08:54:29;;;;;;;45.40;33.73;;;;;;;8.95;59.68;96575.94;1740628;82;21099;-80
2021/03/04 08:57:05;;;;;;;51.50;34.43;;;;;;;9.01;59.65;96570.08;1740257;82;21377;-80
2021/03/04 08:59:29;;;;;;;40.35;26.55;;;;;;;9.09;59.81;96575.22;1714841;82;21147;-81
2021/03/04 09:01:55;;;;;;;39.60;26.95;;;;;;;9.16;59.59;96567.11;1740629;81;21174;-81
2021/03/04 09:04:28;;;;;;;46.90;30.90;;;;;;;9.24;59.33;96568.84;1740283;82;21135;-81
2021/03/04 09:06:54;;;;;;;54.13;36.55;;;;;;;9.32;59.26;96564.94;1719474;82;21115;-81
2021/03/04 09:09:26;;;;;;;54.03;36.58;;;;;;;9.40;59.17;96562.78;1740660;82;21337;-81
2021/03/04 09:11:53;;;;;;;;;;;;;;;9.45;58.84;96563.10;1743796;82;21103;-81
2021/03/04 09:14:28;;;;;;;45.00;30.65;;;;;;;9.50;59.02;96564.69;1741167;82;20210;-81
2021/03/04 09:16:54;;;;;;;47.15;33.25;;;;;;;9.53;58.68;96559.16;1741363;82;21112;-81
2021/03/04 09:19:33;;;;;;;43.68;31.55;;;;;;;9.59;59.12;96557.16;1741255;82;21238;-81
2021/03/04 09:22:02;;;;;;;38.95;28.07;;;;;;;9.65;58.87;96551.30;1740705;82;21440;-80
2021/03/04 09:24:28;;;;;;;51.00;29.40;;;;;;;9.72;58.53;96547.52;1740673;82;21103;-81
2021/03/04 09:26:54;;;;;;;44.77;28.57;;;;;;;9.74;58.40;96546.86;1740645;82;21170;-81
2021/03/04 09:29:20;;;;;;;42.13;28.50;;;;;;;9.75;58.11;96547.98;1719461;82;21323;-81
2021/03/04 09:31:53;;;;;;;183.07;103.07;;;;;;;9.73;57.90;96546.05;1740135;82;21187;-81
2021/03/04 09:34:34;;;;;;;55.85;36.10;;;;;;;9.75;58.30;96550.58;1740624;82;21150;-81
2021/03/04 09:37:17;;;;;;;42.17;29.12;;;;;;;9.76;57.85;96546.19;1740005;82;21130;-81
2021/03/04 09:39:48;;;;;;;43.87;29.55;;;;;;;9.78;57.95;96546.86;1739885;82;21126;-81
2021/03/04 09:42:17;;;;;;;37.75;26.17;;;;;;;9.79;57.77;96545.88;1742308;81;21127;-81
2021/03/04 09:44:53;;;;;;;37.58;25.30;;;;;;;9.82;58.32;96537.73;1755199;82;21416;-81
2021/03/04 09:47:27;;;;;;;37.75;25.55;;;;;;;9.84;57.24;96533.17;1755082;82;21341;-81
2021/03/04 09:49:58;;;;;;;34.10;22.45;;;;;;;9.84;57.64;96527.98;1755436;81;21095;-81
2021/03/04 09:52:26;;;;;;;35.92;24.47;;;;;;;9.89;57.76;96517.39;1755145;82;21095;-81
2021/03/04 09:55:15;;;;;;;33.10;21.20;;;;;;;9.92;57.44;96518.37;1755273;82;21102;-81
2021/03/04 09:57:43;;;;;;;38.33;24.82;;;;;;;9.96;56.92;96516.22;1755284;81;21113;-81
2021/03/04 10:00:22;;;;;;;33.23;23.07;;;;;;;9.99;56.85;96522.36;1755173;81;21095;-81
2021/03/04 10:02:49;;;;;;;35.15;23.42;;;;;;;10.00;56.85;96516.19;1727841;82;21095;-81
2021/03/04 10:05:23;;;;;;;37.42;23.67;;;;;;;10.06;57.05;96507.69;1704778;82;21084;-81
2021/03/04 10:07:50;;;;;;;61.17;45.33;;;;;;;10.11;56.33;96511.08;1755542;81;21114;-81
2021/03/04 10:10:20;;;;;;;47.10;30.32;;;;;;;10.14;57.11;96514.12;1755206;81;21119;-81
2021/03/04 10:12:53;;;;;;;36.63;24.55;;;;;;;10.18;56.43;96508.08;1755151;81;21142;-81
2021/03/04 10:15:35;;;;;;;36.05;23.10;;;;;;;10.20;55.67;96505.62;1750904;82;21130;-81
2021/03/04 10:18:11;;;;;;;34.38;23.95;;;;;;;10.18;56.05;96509.38;1755262;82;21080;-81
2021/03/04 10:20:40;;;;;;;36.70;22.85;;;;;;;10.21;56.63;96508.56;1755118;81;21119;-81
2021/03/04 10:23:09;;;;;;;36.28;24.35;;;;;;;10.21;56.42;96504.67;1755260;82;21488;-81
2021/03/04 10:25:35;;;;;;;37.25;23.73;;;;;;;10.21;56.05;96502.07;1754477;82;21349;-81
2021/03/04 10:28:03;;;;;;;32.60;22.05;;;;;;;10.17;55.88;96497.38;1727684;82;21071;-81
2021/03/04 10:30:35;;;;;;;33.65;22.67;;;;;;;10.18;55.71;96495.91;1727831;82;21130;-81
2021/03/04 10:33:07;;;;;;;38.83;24.77;;;;;;;10.20;55.96;96490.04;1755276;82;21090;-81
2021/03/04 10:35:35;;;;;;;;;;;;;;;10.22;56.02;96492.00;1757865;81;21079;-81
2021/03/04 10:38:01;;;;;;;35.50;23.07;;;;;;;10.25;56.25;96497.35;1755173;82;20130;-81
2021/03/04 10:40:27;;;;;;;38.02;24.23;;;;;;;10.23;55.91;96489.71;1755043;82;21099;-81
2021/03/04 10:42:54;;;;;;;36.42;24.18;;;;;;;10.26;56.73;96478.69;1751748;81;21392;-81
2021/03/04 10:45:21;;;;;;;34.15;24.77;;;;;;;10.29;56.43;96473.13;1720545;82;21115;-81
2021/03/04 10:47:47;;;;;;;38.48;26.57;;;;;;;10.30;56.13;96476.84;1741075;82;21127;-81
2021/03/04 10:50:18;;;;;;;42.88;27.87;;;;;;;10.29;56.44;96482.22;1696568;82;21229;-81
2021/03/04 10:52:44;;;;;;;35.43;24.47;;;;;;;10.27;56.78;96483.70;1741151;82;21230;-81
2021/03/04 10:55:12;;;;;;;40.85;27.73;;;;;;;10.31;57.01;96473.27;1741166;82;21087;-81
2021/03/04 10:57:39;;;;;;;68.75;44.48;;;;;;;10.35;57.21;96478.41;1741219;82;21122;-81
2021/03/04 11:00:09;;;;;;;52.25;36.98;;;;;;;10.41;57.02;96477.72;1718851;82;21307;-81
2021/03/04 11:02:36;;;;;;;51.90;35.95;;;;;;;10.43;56.96;96473.15;1741138;82;21330;-81
2021/03/04 11:05:04;;;;;;;45.52;30.15;;;;;;;10.48;57.24;96463.02;1741097;81;21132;-81
2021/03/04 11:07:30;;;;;;;42.43;31.17;;;;;;;10.50;57.26;96468.03;1741095;82;21139;-81
2021/03/04 11:09:57;;;;;;;44.80;30.25;;;;;;;10.51;57.41;96463.95;1741117;82;21099;-81
2021/03/04 11:12:23;;;;;;;44.60;29.72;;;;;;;10.52;57.28;96464.27;1741030;82;21416;-81
2021/03/04 11:14:49;;;;;;;44.30;27.37;;;;;;;10.51;57.45;96458.76;1720247;82;21535;-82
2021/03/04 11:17:15;;;;;;;39.48;28.07;;;;;;;10.53;57.25;96461.98;1741045;82;21242;-81
2021/03/04 11:19:44;;;;;;;51.85;32.65;;;;;;;10.51;57.23;96455.35;1741137;82;21238;-81
2021/03/04 11:22:10;;;;;;;43.00;28.95;;;;;;;10.48;57.43;96454.42;1741063;82;21282;-81
2021/03/04 11:24:37;;;;;;;45.10;30.48;;;;;;;10.49;57.83;96449.04;1696511;82;21118;-81
2021/03/04 11:27:03;;;;;;;45.92;31.42;;;;;;;10.50;57.76;96438.95;1741124;82;21091;-81
2021/03/04 11:29:30;;;;;;;44.65;29.40;;;;;;;10.56;57.89;96437.42;1741077;82;21071;-81
2021/03/04 11:31:56;;;;;;;42.13;28.20;;;;;;;10.60;57.82;96431.40;1720305;82;21088;-82
2021/03/04 11:34:22;;;;;;;40.12;27.82;;;;;;;10.63;57.63;96428.44;1741247;82;21223;-82
2021/03/04 11:36:48;;;;;;;48.28;31.27;;;;;;;10.67;57.57;96426.59;1741263;82;21111;-81
2021/03/04 11:39:14;;;;;;;49.45;33.58;;;;;;;10.75;58.08;96427.00;1741281;82;21111;-81
2021/03/04 11:41:41;;;;;;;44.45;29.42;;;;;;;10.84;57.95;96431.09;1741078;81;21326;-81
2021/03/04 11:44:07;;;;;;;44.85;31.12;;;;;;;10.91;57.96;96416.39;1750209;81;21138;-81
2021/03/04 11:46:33;;;;;;;52.75;34.70;;;;;;;11.01;57.85;96414.29;1755109;81;21110;-81
2021/03/04 11:48:59;;;;;;;46.70;31.68;;;;;;;11.06;57.88;96413.27;1755072;82;21130;-81
2021/03/04 11:51:25;;;;;;;45.73;30.17;;;;;;;11.07;57.38;96405.77;1755181;81;21106;-81
2021/03/04 11:53:51;;;;;;;40.55;29.48;;;;;;;11.06;56.97;96404.63;1755163;81;21327;-81
2021/03/04 11:56:17;;;;;;;51.18;34.83;;;;;;;11.08;57.69;96407.38;1755075;81;21099;-81
2021/03/04 11:58:43;;;;;;;60.85;43.42;;;;;;;11.10;57.12;96402.80;1755047;82;21117;-81
2021/03/04 12:01:09;;;;;;;61.08;43.85;;;;;;;11.12;57.46;96407.31;1755088;81;21114;-81
2021/03/04 12:03:35;;;;;;;53.70;39.35;;;;;;;11.15;57.51;96397.04;1755066;81;21118;-81
2021/03/04 12:06:01;;;;;;;50.43;36.95;;;;;;;11.17;57.45;96394.25;1755117;81;21257;-81
2021/03/04 12:08:28;;;;;;;48.78;33.60;;;;;;;11.16;57.54;96390.04;1755148;81;21115;-81
2021/03/04 12:10:54;;;;;;;45.50;31.87;;;;;;;11.13;57.32;96390.72;1755177;81;21109;-81